Overview Statistics Trail Chart Weather Telemetry Raw packets
 

This is the latest recevied weather packets stored in our database for station/object KB4MOX. If no packets are shown the sender has not sent any weather packets the latest 10 day(s).

<< 9 10 11 12 13 14 15 >>
Time Temp. Humidity Pressure Rain* Wind** Luminosity Snow
1788555607 35° C 50% 1014.4 hPa 0 mm - 437 W/m² -
1788555302 35° C 51% 1014.3 hPa 0 mm - 470 W/m² -
1788554999 35.56° C 48% 1014.6 hPa 0 mm - 488 W/m² -
1788554694 35° C 49% 1014.5 hPa 0 mm - 509 W/m² -
1788554390 35.56° C 48% 1014.7 hPa 0 mm - 527 W/m² -
1788554086 35° C 48% 1014.6 hPa 0 mm - 513 W/m² -
1788553782 34.44° C 50% 1014.7 hPa 0 mm - 523 W/m² -
1788553478 34.44° C 51% 1014.9 hPa 0 mm - 566 W/m² -
1788553174 34.44° C 51% 1014.9 hPa 0 mm - 106 W/m² -
1788552869 34.44° C 51% 1014.9 hPa 0 mm - 636 W/m² -
1788552564 34.44° C 48% 1015 hPa 0 mm - 122 W/m² -
1788552262 35° C 48% 1014.9 hPa 0 mm - 91 W/m² -
1788551958 35.56° C 46% 1015.1 hPa 0 mm - 645 W/m² -
1788551656 35° C 50% 1015.3 hPa 0 mm - 645 W/m² -
1788551356 34.44° C 50% 1015.3 hPa 0 mm - 646 W/m² -
1788551055 34.44° C 51% 1015.4 hPa 0 mm - 676 W/m² -
1788550751 35° C 49% 1015.2 hPa 0 mm - 108 W/m² -
1788550446 34.44° C 51% 1015.4 hPa 0 mm - 583 W/m² -
1788550141 34.44° C 51% 1015.3 hPa 0 mm - 729 W/m² -
1788549837 32.78° C 55% 1015.5 hPa 0 mm - 712 W/m² -
1788549544 32.78° C 56% 1015.6 hPa 0 mm - 78 W/m² -
1788549229 33.89° C 53% 1015.6 hPa 0 mm - 156 W/m² -
1788548926 35° C 51% 1015.7 hPa 0 mm - 799 W/m² -
1788548621 33.89° C 53% 1015.9 hPa 0 mm - 764 W/m² -
1788548317 33.89° C 53% 1016 hPa 0 mm - 245 W/m² -

* Rain latest hour (hover to see other rain measurements)
** Current wind speed in m/s (hover to see current wind gust speed)